sensor_id;sensor_type;location;lat;lon;timestamp;P1;durP1;ratioP1;P2;durP2;ratioP2
73136;SDS011;67767;45.636;11.756;2023-04-29T00:01:07;14.65;;;10.23;;
73136;SDS011;67767;45.636;11.756;2023-04-29T00:03:34;16.37;;;10.27;;
73136;SDS011;67767;45.636;11.756;2023-04-29T00:06:00;17.33;;;10.60;;
73136;SDS011;67767;45.636;11.756;2023-04-29T00:08:26;16.90;;;10.32;;
73136;SDS011;67767;45.636;11.756;2023-04-29T00:10:51;15.02;;;9.73;;
73136;SDS011;67767;45.636;11.756;2023-04-29T00:13:17;19.53;;;10.07;;
73136;SDS011;67767;45.636;11.756;2023-04-29T00:15:43;14.83;;;9.67;;
73136;SDS011;67767;45.636;11.756;2023-04-29T00:18:08;16.23;;;10.05;;
73136;SDS011;67767;45.636;11.756;2023-04-29T00:20:35;16.52;;;9.57;;
73136;SDS011;67767;45.636;11.756;2023-04-29T00:23:04;17.90;;;9.50;;
73136;SDS011;67767;45.636;11.756;2023-04-29T00:25:30;14.45;;;9.45;;
73136;SDS011;67767;45.636;11.756;2023-04-29T00:27:56;15.50;;;9.95;;
73136;SDS011;67767;45.636;11.756;2023-04-29T00:30:25;16.83;;;9.68;;
73136;SDS011;67767;45.636;11.756;2023-04-29T00:32:52;16.60;;;9.67;;
73136;SDS011;67767;45.636;11.756;2023-04-29T00:35:19;15.50;;;9.48;;
73136;SDS011;67767;45.636;11.756;2023-04-29T00:37:45;15.68;;;10.30;;
73136;SDS011;67767;45.636;11.756;2023-04-29T00:40:10;18.47;;;10.70;;
73136;SDS011;67767;45.636;11.756;2023-04-29T00:42:39;18.52;;;12.52;;
73136;SDS011;67767;45.636;11.756;2023-04-29T00:45:05;19.50;;;12.00;;
73136;SDS011;67767;45.636;11.756;2023-04-29T00:47:32;18.50;;;12.25;;
73136;SDS011;67767;45.636;11.756;2023-04-29T00:49:58;16.40;;;10.97;;
73136;SDS011;67767;45.636;11.756;2023-04-29T00:52:24;16.90;;;10.80;;
73136;SDS011;67767;45.636;11.756;2023-04-29T00:54:51;18.27;;;10.77;;
73136;SDS011;67767;45.636;11.756;2023-04-29T00:57:18;16.77;;;9.70;;
73136;SDS011;67767;45.636;11.756;2023-04-29T00:59:43;14.23;;;8.75;;
73136;SDS011;67767;45.636;11.756;2023-04-29T01:02:10;15.80;;;9.48;;
73136;SDS011;67767;45.636;11.756;2023-04-29T01:04:36;14.90;;;9.15;;
73136;SDS011;67767;45.636;11.756;2023-04-29T01:07:12;15.30;;;8.83;;
73136;SDS011;67767;45.636;11.756;2023-04-29T01:17:35;17.40;;;9.97;;
73136;SDS011;67767;45.636;11.756;2023-04-29T01:20:05;16.30;;;9.18;;
73136;SDS011;67767;45.636;11.756;2023-04-29T01:22:32;14.27;;;8.70;;
73136;SDS011;67767;45.636;11.756;2023-04-29T01:24:58;14.93;;;8.90;;
73136;SDS011;67767;45.636;11.756;2023-04-29T01:27:29;15.60;;;8.10;;
73136;SDS011;67767;45.636;11.756;2023-04-29T01:30:13;14.38;;;8.20;;
73136;SDS011;67767;45.636;11.756;2023-04-29T01:38:40;14.90;;;7.73;;
73136;SDS011;67767;45.636;11.756;2023-04-29T01:41:39;11.30;;;7.10;;
73136;SDS011;67767;45.636;11.756;2023-04-29T01:44:29;11.70;;;7.25;;
73136;SDS011;67767;45.636;11.756;2023-04-29T01:46:58;11.77;;;7.38;;
73136;SDS011;67767;45.636;11.756;2023-04-29T01:49:25;11.70;;;7.18;;
73136;SDS011;67767;45.636;11.756;2023-04-29T01:51:52;12.93;;;7.43;;
73136;SDS011;67767;45.636;11.756;2023-04-29T01:54:17;14.23;;;7.90;;
73136;SDS011;67767;45.636;11.756;2023-04-29T01:56:43;35.30;;;9.52;;
73136;SDS011;67767;45.636;11.756;2023-04-29T01:59:09;14.83;;;8.13;;
73136;SDS011;67767;45.636;11.756;2023-04-29T02:01:35;12.73;;;7.40;;
73136;SDS011;67767;45.636;11.756;2023-04-29T02:04:01;14.23;;;8.33;;
73136;SDS011;67767;45.636;11.756;2023-04-29T02:06:27;14.95;;;8.15;;
73136;SDS011;67767;45.636;11.756;2023-04-29T02:08:53;15.20;;;8.48;;
73136;SDS011;67767;45.636;11.756;2023-04-29T02:11:18;13.73;;;8.00;;
73136;SDS011;67767;45.636;11.756;2023-04-29T02:13:45;12.45;;;7.95;;
73136;SDS011;67767;45.636;11.756;2023-04-29T02:16:11;14.98;;;7.93;;
73136;SDS011;67767;45.636;11.756;2023-04-29T02:18:38;11.38;;;7.20;;
73136;SDS011;67767;45.636;11.756;2023-04-29T02:21:04;12.30;;;7.00;;
73136;SDS011;67767;45.636;11.756;2023-04-29T02:23:31;15.70;;;8.55;;
73136;SDS011;67767;45.636;11.756;2023-04-29T02:25:58;14.70;;;6.90;;
73136;SDS011;67767;45.636;11.756;2023-04-29T02:28:24;12.90;;;7.20;;
73136;SDS011;67767;45.636;11.756;2023-04-29T02:30:49;12.20;;;6.77;;
73136;SDS011;67767;45.636;11.756;2023-04-29T02:33:15;14.52;;;7.55;;
73136;SDS011;67767;45.636;11.756;2023-04-29T02:35:42;11.68;;;6.80;;
73136;SDS011;67767;45.636;11.756;2023-04-29T02:38:08;10.88;;;6.68;;
73136;SDS011;67767;45.636;11.756;2023-04-29T02:40:34;12.77;;;7.10;;
73136;SDS011;67767;45.636;11.756;2023-04-29T02:43:05;14.40;;;7.20;;
73136;SDS011;67767;45.636;11.756;2023-04-29T02:45:30;13.87;;;6.80;;
73136;SDS011;67767;45.636;11.756;2023-04-29T02:47:56;15.63;;;7.32;;
73136;SDS011;67767;45.636;11.756;2023-04-29T02:50:21;12.67;;;7.07;;
73136;SDS011;67767;45.636;11.756;2023-04-29T02:52:49;13.07;;;7.68;;
73136;SDS011;67767;45.636;11.756;2023-04-29T02:55:15;12.43;;;7.30;;
73136;SDS011;67767;45.636;11.756;2023-04-29T02:57:41;14.93;;;7.83;;
73136;SDS011;67767;45.636;11.756;2023-04-29T03:00:07;13.52;;;8.18;;
73136;SDS011;67767;45.636;11.756;2023-04-29T03:02:34;13.55;;;7.75;;
73136;SDS011;67767;45.636;11.756;2023-04-29T03:05:00;13.52;;;7.53;;
73136;SDS011;67767;45.636;11.756;2023-04-29T03:07:25;13.60;;;7.50;;
73136;SDS011;67767;45.636;11.756;2023-04-29T03:09:52;13.23;;;7.40;;
73136;SDS011;67767;45.636;11.756;2023-04-29T03:12:18;15.10;;;7.43;;
73136;SDS011;67767;45.636;11.756;2023-04-29T03:14:44;13.07;;;7.07;;
73136;SDS011;67767;45.636;11.756;2023-04-29T03:17:10;12.57;;;7.05;;
73136;SDS011;67767;45.636;11.756;2023-04-29T03:19:36;14.10;;;7.70;;
73136;SDS011;67767;45.636;11.756;2023-04-29T03:22:01;14.63;;;7.88;;
73136;SDS011;67767;45.636;11.756;2023-04-29T03:24:27;11.65;;;6.93;;
73136;SDS011;67767;45.636;11.756;2023-04-29T03:26:53;13.63;;;7.87;;
73136;SDS011;67767;45.636;11.756;2023-04-29T03:29:18;14.80;;;7.80;;
73136;SDS011;67767;45.636;11.756;2023-04-29T03:31:44;12.27;;;7.07;;
73136;SDS011;67767;45.636;11.756;2023-04-29T03:34:10;12.52;;;7.18;;
73136;SDS011;67767;45.636;11.756;2023-04-29T03:36:38;12.50;;;6.75;;
73136;SDS011;67767;45.636;11.756;2023-04-29T03:39:04;11.50;;;7.60;;
73136;SDS011;67767;45.636;11.756;2023-04-29T03:41:29;18.90;;;8.25;;
73136;SDS011;67767;45.636;11.756;2023-04-29T03:43:55;11.23;;;6.73;;
73136;SDS011;67767;45.636;11.756;2023-04-29T03:46:25;12.60;;;7.57;;
73136;SDS011;67767;45.636;11.756;2023-04-29T03:48:51;12.73;;;7.30;;
73136;SDS011;67767;45.636;11.756;2023-04-29T03:51:19;16.50;;;7.40;;
73136;SDS011;67767;45.636;11.756;2023-04-29T03:53:46;15.17;;;7.60;;
73136;SDS011;67767;45.636;11.756;2023-04-29T03:56:12;12.30;;;7.47;;
73136;SDS011;67767;45.636;11.756;2023-04-29T03:58:38;13.50;;;7.87;;
73136;SDS011;67767;45.636;11.756;2023-04-29T04:01:03;15.27;;;7.47;;
73136;SDS011;67767;45.636;11.756;2023-04-29T04:03:29;14.83;;;7.70;;
73136;SDS011;67767;45.636;11.756;2023-04-29T04:05:54;14.43;;;8.00;;
73136;SDS011;67767;45.636;11.756;2023-04-29T04:08:20;15.47;;;7.33;;
73136;SDS011;67767;45.636;11.756;2023-04-29T04:10:46;13.88;;;7.40;;
73136;SDS011;67767;45.636;11.756;2023-04-29T04:13:11;13.23;;;7.70;;
73136;SDS011;67767;45.636;11.756;2023-04-29T04:15:38;13.93;;;7.32;;
73136;SDS011;67767;45.636;11.756;2023-04-29T04:18:04;12.23;;;7.20;;
73136;SDS011;67767;45.636;11.756;2023-04-29T04:20:30;13.67;;;7.40;;
73136;SDS011;67767;45.636;11.756;2023-04-29T04:22:55;15.32;;;7.80;;
73136;SDS011;67767;45.636;11.756;2023-04-29T04:25:21;14.70;;;7.80;;
73136;SDS011;67767;45.636;11.756;2023-04-29T04:27:47;14.93;;;8.90;;
73136;SDS011;67767;45.636;11.756;2023-04-29T04:30:12;16.17;;;8.90;;
73136;SDS011;67767;45.636;11.756;2023-04-29T04:32:38;16.20;;;8.87;;
73136;SDS011;67767;45.636;11.756;2023-04-29T04:35:04;13.45;;;7.65;;
73136;SDS011;67767;45.636;11.756;2023-04-29T04:37:31;15.50;;;7.72;;
73136;SDS011;67767;45.636;11.756;2023-04-29T04:39:56;12.83;;;8.57;;
73136;SDS011;67767;45.636;11.756;2023-04-29T04:42:22;15.25;;;8.30;;
73136;SDS011;67767;45.636;11.756;2023-04-29T04:44:48;12.57;;;7.30;;
73136;SDS011;67767;45.636;11.756;2023-04-29T04:47:13;12.98;;;7.30;;
73136;SDS011;67767;45.636;11.756;2023-04-29T04:49:39;16.47;;;7.37;;
73136;SDS011;67767;45.636;11.756;2023-04-29T04:52:05;11.70;;;7.25;;
73136;SDS011;67767;45.636;11.756;2023-04-29T04:54:31;12.73;;;7.80;;
73136;SDS011;67767;45.636;11.756;2023-04-29T04:56:56;15.75;;;7.63;;
73136;SDS011;67767;45.636;11.756;2023-04-29T04:59:22;12.30;;;7.35;;
73136;SDS011;67767;45.636;11.756;2023-04-29T05:01:48;12.63;;;7.57;;
73136;SDS011;67767;45.636;11.756;2023-04-29T05:04:13;12.00;;;7.50;;
73136;SDS011;67767;45.636;11.756;2023-04-29T05:06:39;13.48;;;8.30;;
73136;SDS011;67767;45.636;11.756;2023-04-29T05:09:05;13.33;;;8.40;;
73136;SDS011;67767;45.636;11.756;2023-04-29T05:11:31;18.17;;;8.25;;
73136;SDS011;67767;45.636;11.756;2023-04-29T05:13:56;14.00;;;7.03;;
73136;SDS011;67767;45.636;11.756;2023-04-29T05:16:22;13.57;;;7.72;;
73136;SDS011;67767;45.636;11.756;2023-04-29T05:18:47;14.37;;;7.90;;
73136;SDS011;67767;45.636;11.756;2023-04-29T05:21:13;16.20;;;9.23;;
73136;SDS011;67767;45.636;11.756;2023-04-29T05:23:39;15.13;;;9.67;;
73136;SDS011;67767;45.636;11.756;2023-04-29T05:26:04;16.42;;;8.85;;
73136;SDS011;67767;45.636;11.756;2023-04-29T05:28:30;15.60;;;8.67;;
73136;SDS011;67767;45.636;11.756;2023-04-29T05:30:56;13.80;;;8.37;;
73136;SDS011;67767;45.636;11.756;2023-04-29T05:33:21;14.38;;;8.07;;
73136;SDS011;67767;45.636;11.756;2023-04-29T05:35:47;14.30;;;8.50;;
73136;SDS011;67767;45.636;11.756;2023-04-29T05:38:12;14.05;;;8.07;;
73136;SDS011;67767;45.636;11.756;2023-04-29T05:40:38;18.93;;;8.80;;
73136;SDS011;67767;45.636;11.756;2023-04-29T05:43:04;31.25;;;13.55;;
73136;SDS011;67767;45.636;11.756;2023-04-29T05:45:30;15.80;;;8.70;;
73136;SDS011;67767;45.636;11.756;2023-04-29T05:47:56;16.07;;;8.17;;
73136;SDS011;67767;45.636;11.756;2023-04-29T05:50:21;12.93;;;8.10;;
73136;SDS011;67767;45.636;11.756;2023-04-29T05:52:47;23.10;;;13.63;;
73136;SDS011;67767;45.636;11.756;2023-04-29T05:55:13;12.95;;;8.25;;
73136;SDS011;67767;45.636;11.756;2023-04-29T05:57:39;15.93;;;8.10;;
73136;SDS011;67767;45.636;11.756;2023-04-29T06:00:05;14.52;;;9.88;;
73136;SDS011;67767;45.636;11.756;2023-04-29T06:02:31;14.60;;;9.50;;
73136;SDS011;67767;45.636;11.756;2023-04-29T06:04:58;16.67;;;7.97;;
73136;SDS011;67767;45.636;11.756;2023-04-29T06:07:23;15.82;;;8.75;;
73136;SDS011;67767;45.636;11.756;2023-04-29T06:09:50;16.35;;;8.52;;
73136;SDS011;67767;45.636;11.756;2023-04-29T06:12:16;14.27;;;7.93;;
73136;SDS011;67767;45.636;11.756;2023-04-29T06:14:42;14.25;;;8.27;;
73136;SDS011;67767;45.636;11.756;2023-04-29T06:17:07;16.27;;;7.40;;
73136;SDS011;67767;45.636;11.756;2023-04-29T06:19:33;13.77;;;8.05;;
73136;SDS011;67767;45.636;11.756;2023-04-29T06:21:59;12.93;;;7.57;;
73136;SDS011;67767;45.636;11.756;2023-04-29T06:24:25;14.57;;;7.22;;
73136;SDS011;67767;45.636;11.756;2023-04-29T06:26:50;14.27;;;8.30;;
73136;SDS011;67767;45.636;11.756;2023-04-29T06:29:16;11.60;;;7.72;;
73136;SDS011;67767;45.636;11.756;2023-04-29T06:31:42;14.27;;;7.87;;
73136;SDS011;67767;45.636;11.756;2023-04-29T06:34:07;13.35;;;7.72;;
73136;SDS011;67767;45.636;11.756;2023-04-29T06:36:33;13.17;;;8.03;;
73136;SDS011;67767;45.636;11.756;2023-04-29T06:38:59;12.60;;;7.32;;
73136;SDS011;67767;45.636;11.756;2023-04-29T06:41:24;14.87;;;8.53;;
73136;SDS011;67767;45.636;11.756;2023-04-29T06:43:51;17.42;;;7.55;;
73136;SDS011;67767;45.636;11.756;2023-04-29T06:46:16;16.52;;;8.57;;
73136;SDS011;67767;45.636;11.756;2023-04-29T06:48:42;19.30;;;7.23;;
73136;SDS011;67767;45.636;11.756;2023-04-29T06:51:08;13.30;;;6.90;;
73136;SDS011;67767;45.636;11.756;2023-04-29T06:53:33;13.15;;;7.40;;
73136;SDS011;67767;45.636;11.756;2023-04-29T06:55:59;10.53;;;6.47;;
73136;SDS011;67767;45.636;11.756;2023-04-29T06:58:25;11.13;;;6.97;;
73136;SDS011;67767;45.636;11.756;2023-04-29T07:00:50;12.33;;;6.67;;
73136;SDS011;67767;45.636;11.756;2023-04-29T07:03:16;12.43;;;7.15;;
73136;SDS011;67767;45.636;11.756;2023-04-29T07:05:43;12.52;;;6.78;;
73136;SDS011;67767;45.636;11.756;2023-04-29T07:08:12;13.37;;;7.23;;
73136;SDS011;67767;45.636;11.756;2023-04-29T07:10:38;12.43;;;7.57;;
73136;SDS011;67767;45.636;11.756;2023-04-29T07:13:03;13.73;;;8.30;;
73136;SDS011;67767;45.636;11.756;2023-04-29T07:15:32;16.40;;;7.40;;
73136;SDS011;67767;45.636;11.756;2023-04-29T07:17:59;14.20;;;8.02;;
73136;SDS011;67767;45.636;11.756;2023-04-29T07:20:24;10.55;;;6.90;;
73136;SDS011;67767;45.636;11.756;2023-04-29T07:22:51;13.40;;;7.40;;
73136;SDS011;67767;45.636;11.756;2023-04-29T07:25:17;12.35;;;7.25;;
73136;SDS011;67767;45.636;11.756;2023-04-29T07:27:43;14.50;;;7.75;;
73136;SDS011;67767;45.636;11.756;2023-04-29T07:30:08;12.60;;;7.57;;
73136;SDS011;67767;45.636;11.756;2023-04-29T07:32:34;13.68;;;8.13;;
73136;SDS011;67767;45.636;11.756;2023-04-29T07:35:01;17.17;;;7.70;;
73136;SDS011;67767;45.636;11.756;2023-04-29T07:37:27;15.00;;;8.40;;
73136;SDS011;67767;45.636;11.756;2023-04-29T07:39:52;14.30;;;7.93;;
73136;SDS011;67767;45.636;11.756;2023-04-29T07:42:18;12.55;;;8.00;;
73136;SDS011;67767;45.636;11.756;2023-04-29T07:44:44;15.13;;;7.90;;
73136;SDS011;67767;45.636;11.756;2023-04-29T07:47:10;13.40;;;7.30;;
73136;SDS011;67767;45.636;11.756;2023-04-29T07:49:36;12.40;;;7.63;;
73136;SDS011;67767;45.636;11.756;2023-04-29T07:52:05;12.60;;;7.70;;
73136;SDS011;67767;45.636;11.756;2023-04-29T07:54:31;14.35;;;7.47;;
73136;SDS011;67767;45.636;11.756;2023-04-29T07:56:57;14.23;;;8.43;;
73136;SDS011;67767;45.636;11.756;2023-04-29T07:59:23;12.10;;;6.77;;
73136;SDS011;67767;45.636;11.756;2023-04-29T08:01:49;13.45;;;7.28;;
73136;SDS011;67767;45.636;11.756;2023-04-29T08:04:14;14.13;;;6.97;;
73136;SDS011;67767;45.636;11.756;2023-04-29T08:06:40;13.40;;;6.65;;
73136;SDS011;67767;45.636;11.756;2023-04-29T08:09:06;13.90;;;7.20;;
73136;SDS011;67767;45.636;11.756;2023-04-29T08:11:31;11.25;;;7.05;;
73136;SDS011;67767;45.636;11.756;2023-04-29T08:13:57;13.10;;;7.70;;
73136;SDS011;67767;45.636;11.756;2023-04-29T08:16:24;14.45;;;7.45;;
73136;SDS011;67767;45.636;11.756;2023-04-29T08:18:51;12.18;;;7.15;;
73136;SDS011;67767;45.636;11.756;2023-04-29T08:21:17;15.05;;;8.20;;
73136;SDS011;67767;45.636;11.756;2023-04-29T08:23:43;12.50;;;6.97;;
73136;SDS011;67767;45.636;11.756;2023-04-29T08:26:09;13.90;;;6.20;;
73136;SDS011;67767;45.636;11.756;2023-04-29T08:28:37;14.27;;;7.07;;
73136;SDS011;67767;45.636;11.756;2023-04-29T08:31:03;13.40;;;6.60;;
73136;SDS011;67767;45.636;11.756;2023-04-29T08:33:31;12.98;;;6.35;;
73136;SDS011;67767;45.636;11.756;2023-04-29T08:36:02;14.10;;;6.80;;
73136;SDS011;67767;45.636;11.756;2023-04-29T08:38:29;13.23;;;6.60;;
73136;SDS011;67767;45.636;11.756;2023-04-29T08:40:55;12.45;;;7.22;;
73136;SDS011;67767;45.636;11.756;2023-04-29T08:43:21;13.80;;;7.88;;
73136;SDS011;67767;45.636;11.756;2023-04-29T08:45:47;13.33;;;7.50;;
73136;SDS011;67767;45.636;11.756;2023-04-29T08:48:16;14.25;;;6.90;;
73136;SDS011;67767;45.636;11.756;2023-04-29T08:50:42;13.75;;;7.38;;
73136;SDS011;67767;45.636;11.756;2023-04-29T08:53:09;13.80;;;7.18;;
73136;SDS011;67767;45.636;11.756;2023-04-29T08:55:43;14.23;;;7.75;;
73136;SDS011;67767;45.636;11.756;2023-04-29T08:58:10;15.23;;;8.00;;
73136;SDS011;67767;45.636;11.756;2023-04-29T09:00:37;13.05;;;7.68;;
73136;SDS011;67767;45.636;11.756;2023-04-29T09:05:49;15.55;;;8.18;;
73136;SDS011;67767;45.636;11.756;2023-04-29T09:08:18;14.50;;;8.05;;
73136;SDS011;67767;45.636;11.756;2023-04-29T09:10:46;14.30;;;7.40;;
73136;SDS011;67767;45.636;11.756;2023-04-29T09:13:25;13.02;;;7.40;;
73136;SDS011;67767;45.636;11.756;2023-04-29T09:15:52;14.75;;;8.32;;
73136;SDS011;67767;45.636;11.756;2023-04-29T09:23:42;14.07;;;7.83;;
73136;SDS011;67767;45.636;11.756;2023-04-29T09:26:08;14.10;;;7.80;;
73136;SDS011;67767;45.636;11.756;2023-04-29T09:28:34;13.02;;;7.82;;
73136;SDS011;67767;45.636;11.756;2023-04-29T09:31:01;18.70;;;8.00;;
73136;SDS011;67767;45.636;11.756;2023-04-29T09:33:44;13.98;;;7.53;;
73136;SDS011;67767;45.636;11.756;2023-04-29T09:36:37;14.15;;;7.97;;
73136;SDS011;67767;45.636;11.756;2023-04-29T09:39:08;14.43;;;8.00;;
73136;SDS011;67767;45.636;11.756;2023-04-29T09:41:38;14.02;;;7.45;;
73136;SDS011;67767;45.636;11.756;2023-04-29T09:44:05;14.18;;;7.68;;
73136;SDS011;67767;45.636;11.756;2023-04-29T09:46:35;13.60;;;7.50;;
73136;SDS011;67767;45.636;11.756;2023-04-29T09:49:01;15.35;;;7.75;;
73136;SDS011;67767;45.636;11.756;2023-04-29T09:51:30;13.57;;;6.70;;
73136;SDS011;67767;45.636;11.756;2023-04-29T09:53:57;15.48;;;8.18;;
73136;SDS011;67767;45.636;11.756;2023-04-29T09:56:27;14.35;;;7.80;;
73136;SDS011;67767;45.636;11.756;2023-04-29T09:58:54;15.52;;;7.85;;
73136;SDS011;67767;45.636;11.756;2023-04-29T10:01:21;13.90;;;6.67;;
73136;SDS011;67767;45.636;11.756;2023-04-29T10:03:47;12.70;;;6.93;;
73136;SDS011;67767;45.636;11.756;2023-04-29T10:06:14;14.57;;;7.53;;
73136;SDS011;67767;45.636;11.756;2023-04-29T10:08:41;13.98;;;7.82;;
73136;SDS011;67767;45.636;11.756;2023-04-29T10:11:10;13.55;;;7.68;;
73136;SDS011;67767;45.636;11.756;2023-04-29T10:13:36;13.37;;;6.63;;
73136;SDS011;67767;45.636;11.756;2023-04-29T10:18:55;13.20;;;6.32;;
73136;SDS011;67767;45.636;11.756;2023-04-29T10:21:28;15.63;;;7.97;;
73136;SDS011;67767;45.636;11.756;2023-04-29T10:23:55;14.27;;;7.82;;
73136;SDS011;67767;45.636;11.756;2023-04-29T10:26:23;15.30;;;6.93;;
73136;SDS011;67767;45.636;11.756;2023-04-29T10:28:55;13.60;;;7.20;;
73136;SDS011;67767;45.636;11.756;2023-04-29T10:31:21;20.92;;;7.03;;
73136;SDS011;67767;45.636;11.756;2023-04-29T10:33:47;14.02;;;7.50;;
73136;SDS011;67767;45.636;11.756;2023-04-29T10:36:15;13.25;;;7.50;;
73136;SDS011;67767;45.636;11.756;2023-04-29T10:38:43;13.10;;;7.67;;
73136;SDS011;67767;45.636;11.756;2023-04-29T10:41:26;12.60;;;7.18;;
73136;SDS011;67767;45.636;11.756;2023-04-29T10:43:55;11.98;;;7.28;;
73136;SDS011;67767;45.636;11.756;2023-04-29T10:46:24;13.32;;;7.88;;
73136;SDS011;67767;45.636;11.756;2023-04-29T10:48:55;14.38;;;7.68;;
73136;SDS011;67767;45.636;11.756;2023-04-29T10:51:27;13.23;;;7.80;;
73136;SDS011;67767;45.636;11.756;2023-04-29T10:53:59;13.60;;;7.55;;
73136;SDS011;67767;45.636;11.756;2023-04-29T10:56:50;15.20;;;6.85;;
73136;SDS011;67767;45.636;11.756;2023-04-29T10:59:15;13.50;;;7.40;;
73136;SDS011;67767;45.636;11.756;2023-04-29T11:01:51;11.65;;;7.25;;
73136;SDS011;67767;45.636;11.756;2023-04-29T11:04:18;14.93;;;7.47;;
73136;SDS011;67767;45.636;11.756;2023-04-29T11:06:46;14.30;;;7.70;;
73136;SDS011;67767;45.636;11.756;2023-04-29T11:12:00;15.10;;;8.30;;
73136;SDS011;67767;45.636;11.756;2023-04-29T11:14:40;13.18;;;7.95;;
73136;SDS011;67767;45.636;11.756;2023-04-29T11:17:08;12.63;;;7.28;;
73136;SDS011;67767;45.636;11.756;2023-04-29T11:19:45;13.50;;;8.05;;
73136;SDS011;67767;45.636;11.756;2023-04-29T11:22:24;13.55;;;8.50;;
73136;SDS011;67767;45.636;11.756;2023-04-29T11:27:28;13.38;;;8.27;;
73136;SDS011;67767;45.636;11.756;2023-04-29T11:29:56;12.13;;;7.57;;
73136;SDS011;67767;45.636;11.756;2023-04-29T11:32:26;16.58;;;8.38;;
73136;SDS011;67767;45.636;11.756;2023-04-29T11:34:53;12.63;;;8.00;;
73136;SDS011;67767;45.636;11.756;2023-04-29T11:37:20;12.97;;;7.53;;
73136;SDS011;67767;45.636;11.756;2023-04-29T11:39:50;15.98;;;9.10;;
73136;SDS011;67767;45.636;11.756;2023-04-29T11:42:20;13.02;;;8.13;;
73136;SDS011;67767;45.636;11.756;2023-04-29T11:44:46;13.55;;;7.80;;
73136;SDS011;67767;45.636;11.756;2023-04-29T11:47:15;12.90;;;7.90;;
73136;SDS011;67767;45.636;11.756;2023-04-29T11:49:40;19.25;;;9.32;;
73136;SDS011;67767;45.636;11.756;2023-04-29T11:52:06;14.73;;;9.02;;
73136;SDS011;67767;45.636;11.756;2023-04-29T11:54:32;14.20;;;8.67;;
73136;SDS011;67767;45.636;11.756;2023-04-29T11:56:58;12.82;;;8.43;;
73136;SDS011;67767;45.636;11.756;2023-04-29T11:59:24;12.50;;;7.20;;
73136;SDS011;67767;45.636;11.756;2023-04-29T12:01:51;13.68;;;8.80;;
73136;SDS011;67767;45.636;11.756;2023-04-29T12:04:16;13.38;;;8.07;;
73136;SDS011;67767;45.636;11.756;2023-04-29T12:06:43;13.38;;;8.25;;
73136;SDS011;67767;45.636;11.756;2023-04-29T12:09:10;12.67;;;8.47;;
73136;SDS011;67767;45.636;11.756;2023-04-29T12:11:36;12.82;;;8.20;;
73136;SDS011;67767;45.636;11.756;2023-04-29T12:14:02;16.60;;;8.60;;
73136;SDS011;67767;45.636;11.756;2023-04-29T12:16:30;12.65;;;8.65;;
73136;SDS011;67767;45.636;11.756;2023-04-29T12:18:57;11.33;;;7.70;;
73136;SDS011;67767;45.636;11.756;2023-04-29T12:21:23;11.73;;;8.30;;
73136;SDS011;67767;45.636;11.756;2023-04-29T12:23:51;15.32;;;8.98;;
73136;SDS011;67767;45.636;11.756;2023-04-29T12:26:18;16.35;;;8.48;;
73136;SDS011;67767;45.636;11.756;2023-04-29T12:28:45;13.23;;;8.30;;
73136;SDS011;67767;45.636;11.756;2023-04-29T12:31:13;11.93;;;7.80;;
73136;SDS011;67767;45.636;11.756;2023-04-29T12:33:41;11.88;;;7.93;;
73136;SDS011;67767;45.636;11.756;2023-04-29T12:36:14;14.68;;;8.82;;
73136;SDS011;67767;45.636;11.756;2023-04-29T12:38:42;14.20;;;8.60;;
73136;SDS011;67767;45.636;11.756;2023-04-29T12:41:08;15.98;;;9.70;;
73136;SDS011;67767;45.636;11.756;2023-04-29T12:43:34;13.40;;;9.23;;
73136;SDS011;67767;45.636;11.756;2023-04-29T12:46:05;15.95;;;9.05;;
73136;SDS011;67767;45.636;11.756;2023-04-29T12:48:32;15.88;;;9.05;;
73136;SDS011;67767;45.636;11.756;2023-04-29T12:50:59;14.00;;;8.30;;
73136;SDS011;67767;45.636;11.756;2023-04-29T12:53:26;13.77;;;8.40;;
73136;SDS011;67767;45.636;11.756;2023-04-29T12:55:54;14.40;;;8.60;;
73136;SDS011;67767;45.636;11.756;2023-04-29T12:58:19;12.55;;;8.15;;
73136;SDS011;67767;45.636;11.756;2023-04-29T13:00:45;13.80;;;8.35;;
73136;SDS011;67767;45.636;11.756;2023-04-29T13:03:11;13.17;;;8.17;;
73136;SDS011;67767;45.636;11.756;2023-04-29T13:05:37;14.73;;;8.27;;
73136;SDS011;67767;45.636;11.756;2023-04-29T13:08:03;13.87;;;8.53;;
73136;SDS011;67767;45.636;11.756;2023-04-29T13:10:30;14.43;;;7.78;;
73136;SDS011;67767;45.636;11.756;2023-04-29T13:12:57;13.10;;;8.75;;
73136;SDS011;67767;45.636;11.756;2023-04-29T13:15:23;13.02;;;8.23;;
73136;SDS011;67767;45.636;11.756;2023-04-29T13:17:49;13.18;;;8.73;;
73136;SDS011;67767;45.636;11.756;2023-04-29T13:20:15;10.70;;;7.03;;
73136;SDS011;67767;45.636;11.756;2023-04-29T13:22:41;13.05;;;8.10;;
73136;SDS011;67767;45.636;11.756;2023-04-29T13:25:08;12.27;;;7.63;;
73136;SDS011;67767;45.636;11.756;2023-04-29T13:27:36;11.05;;;7.25;;
73136;SDS011;67767;45.636;11.756;2023-04-29T13:30:02;13.20;;;7.35;;
73136;SDS011;67767;45.636;11.756;2023-04-29T13:32:29;13.70;;;7.63;;
73136;SDS011;67767;45.636;11.756;2023-04-29T13:34:54;10.93;;;6.20;;
73136;SDS011;67767;45.636;11.756;2023-04-29T13:37:20;10.37;;;6.17;;
73136;SDS011;67767;45.636;11.756;2023-04-29T13:39:46;12.05;;;7.50;;
73136;SDS011;67767;45.636;11.756;2023-04-29T13:42:12;10.63;;;5.83;;
73136;SDS011;67767;45.636;11.756;2023-04-29T13:44:37;11.52;;;7.30;;
73136;SDS011;67767;45.636;11.756;2023-04-29T13:47:08;12.52;;;7.15;;
73136;SDS011;67767;45.636;11.756;2023-04-29T13:49:34;10.18;;;6.55;;
73136;SDS011;67767;45.636;11.756;2023-04-29T13:52:00;12.17;;;7.30;;
73136;SDS011;67767;45.636;11.756;2023-04-29T13:54:26;10.88;;;7.13;;
73136;SDS011;67767;45.636;11.756;2023-04-29T13:56:51;11.37;;;7.13;;
73136;SDS011;67767;45.636;11.756;2023-04-29T13:59:17;10.43;;;6.47;;
73136;SDS011;67767;45.636;11.756;2023-04-29T14:01:42;11.80;;;7.20;;
73136;SDS011;67767;45.636;11.756;2023-04-29T14:04:09;11.02;;;6.90;;
73136;SDS011;67767;45.636;11.756;2023-04-29T14:06:35;11.93;;;6.43;;
73136;SDS011;67767;45.636;11.756;2023-04-29T14:09:01;11.05;;;6.22;;
73136;SDS011;67767;45.636;11.756;2023-04-29T14:11:27;10.33;;;5.83;;
73136;SDS011;67767;45.636;11.756;2023-04-29T14:13:53;11.65;;;6.95;;
73136;SDS011;67767;45.636;11.756;2023-04-29T14:16:19;12.77;;;6.85;;
73136;SDS011;67767;45.636;11.756;2023-04-29T14:18:45;10.90;;;5.90;;
73136;SDS011;67767;45.636;11.756;2023-04-29T14:21:10;10.68;;;6.35;;
73136;SDS011;67767;45.636;11.756;2023-04-29T14:23:36;9.73;;;6.43;;
73136;SDS011;67767;45.636;11.756;2023-04-29T14:26:02;12.98;;;7.07;;
73136;SDS011;67767;45.636;11.756;2023-04-29T14:28:28;11.50;;;6.83;;
73136;SDS011;67767;45.636;11.756;2023-04-29T14:30:53;11.07;;;6.70;;
73136;SDS011;67767;45.636;11.756;2023-04-29T14:33:20;12.18;;;7.18;;
73136;SDS011;67767;45.636;11.756;2023-04-29T14:35:46;10.90;;;7.25;;
73136;SDS011;67767;45.636;11.756;2023-04-29T14:38:12;13.33;;;6.47;;
73136;SDS011;67767;45.636;11.756;2023-04-29T14:40:38;13.13;;;7.10;;
73136;SDS011;67767;45.636;11.756;2023-04-29T14:43:04;9.80;;;6.10;;
73136;SDS011;67767;45.636;11.756;2023-04-29T14:45:30;10.90;;;6.20;;
73136;SDS011;67767;45.636;11.756;2023-04-29T14:47:56;10.55;;;6.43;;
73136;SDS011;67767;45.636;11.756;2023-04-29T14:50:21;10.33;;;6.13;;